Time;durP1;ratioP1;P1;durP2;ratioP2;P2;SDS_P1;SDS_P2;PMS_P1;PMS_P2;Temp;Humidity;BMP_temperature;BMP_pressure;BME280_temperature;BME280_humidity;BME280_pressure;Samples;Min_cycle;Max_cycle;Signal;HPM_P1;HPM_P2
2023/02/15 00:00:10;;;;;;;62.28;32.63;;;;;;;1.53;100.00;102224.97;4947993;29;20093;-80
2023/02/15 00:02:36;;;;;;;59.42;31.48;;;;;;;1.51;100.00;102224.19;4946829;29;20051;-80
2023/02/15 00:05:03;;;;;;;65.22;34.03;;;;;;;1.34;100.00;102203.38;4946711;29;20055;-80
2023/02/15 00:07:31;;;;;;;58.25;32.40;;;;;;;1.42;100.00;102219.38;4946516;29;20051;-80
2023/02/15 00:09:58;;;;;;;63.85;33.38;;;;;;;1.43;100.00;102215.91;4947365;29;20062;-80
2023/02/15 00:12:24;;;;;;;63.97;33.95;;;;;;;1.40;100.00;102210.91;4946262;29;20120;-81
2023/02/15 00:14:51;;;;;;;65.68;33.35;;;;;;;1.40;100.00;102216.06;4946723;29;20084;-81
2023/02/15 00:17:18;;;;;;;59.97;32.72;;;;;;;1.41;100.00;102214.31;4945573;29;20052;-82
2023/02/15 00:19:44;;;;;;;60.50;32.45;;;;;;;1.35;100.00;102202.50;4946167;29;20474;-81
2023/02/15 00:22:11;;;;;;;63.45;32.53;;;;;;;1.36;100.00;102205.91;4946903;29;20131;-81
2023/02/15 00:24:39;;;;;;;62.83;33.85;;;;;;;1.32;100.00;102207.75;4947221;29;20185;-81
2023/02/15 00:27:06;;;;;;;67.63;34.45;;;;;;;1.33;100.00;102210.28;4945012;29;20515;-81
2023/02/15 00:29:32;;;;;;;66.30;35.25;;;;;;;1.29;100.00;102202.72;4943270;29;20070;-82
2023/02/15 00:31:59;;;;;;;66.45;34.40;;;;;;;1.28;100.00;102211.34;4952312;29;20490;-82
2023/02/15 00:34:28;;;;;;;67.70;35.38;;;;;;;1.28;100.00;102198.47;4944361;29;20517;-80
2023/02/15 00:36:55;;;;;;;65.22;34.78;;;;;;;1.24;100.00;102199.47;4937690;29;20081;-82
2023/02/15 00:39:23;;;;;;;67.15;33.85;;;;;;;1.23;100.00;102203.78;4942782;29;20099;-81
2023/02/15 00:41:51;;;;;;;71.55;34.47;;;;;;;1.22;100.00;102202.09;4941453;29;20051;-79
2023/02/15 00:44:18;;;;;;;65.47;33.70;;;;;;;1.16;100.00;102194.59;4942626;29;20055;-80
2023/02/15 00:46:45;;;;;;;66.88;33.55;;;;;;;1.25;100.00;102203.72;4948988;29;20063;-80
2023/02/15 00:49:11;;;;;;;73.13;36.45;;;;;;;1.21;100.00;102204.75;4943928;29;20083;-79
2023/02/15 00:51:39;;;;;;;59.60;32.63;;;;;;;1.18;100.00;102195.38;4942486;29;20130;-79
2023/02/15 00:54:05;;;;;;;64.43;33.70;;;;;;;1.13;100.00;102205.03;4947658;29;20111;-78
2023/02/15 00:56:32;;;;;;;61.83;32.83;;;;;;;1.14;100.00;102203.28;4944427;29;20146;-79
2023/02/15 00:59:00;;;;;;;66.13;34.58;;;;;;;1.09;100.00;102194.88;4957635;29;20082;-81
2023/02/15 01:01:27;;;;;;;72.47;34.03;;;;;;;1.12;100.00;102189.63;4944559;29;20115;-79
2023/02/15 01:03:54;;;;;;;64.13;34.55;;;;;;;1.12;100.00;102200.75;4939358;29;20202;-79
2023/02/15 01:06:20;;;;;;;66.90;34.08;;;;;;;1.13;100.00;102204.19;4942562;29;20111;-78
2023/02/15 01:08:47;;;;;;;69.82;34.38;;;;;;;1.06;100.00;102197.56;4944185;29;20281;-79
2023/02/15 01:11:21;;;;;;;69.78;35.72;;;;;;;1.07;100.00;102194.94;4944117;29;20107;-79
2023/02/15 01:13:50;;;;;;;67.30;33.42;;;;;;;1.03;100.00;102193.38;4944327;29;20062;-79
2023/02/15 01:16:19;;;;;;;68.85;35.08;;;;;;;0.99;100.00;102195.22;4949252;29;20197;-80
2023/02/15 01:18:46;;;;;;;66.57;33.63;;;;;;;0.97;100.00;102196.16;4952977;29;20491;-80
2023/02/15 01:21:14;;;;;;;71.43;35.00;;;;;;;0.95;100.00;102198.81;4946286;29;20098;-81
2023/02/15 01:23:42;;;;;;;70.15;35.55;;;;;;;0.92;100.00;102192.94;4944519;29;20047;-81
2023/02/15 01:26:09;;;;;;;67.50;33.92;;;;;;;0.95;100.00;102191.06;4943601;29;20147;-81
2023/02/15 01:28:36;;;;;;;68.30;36.22;;;;;;;0.91;100.00;102196.41;4943852;29;20078;-81
2023/02/15 01:31:06;;;;;;;68.53;35.35;;;;;;;0.91;100.00;102201.56;4943742;29;20130;-81
2023/02/15 01:33:35;;;;;;;69.80;35.85;;;;;;;0.88;100.00;102199.94;4949221;29;20103;-80
2023/02/15 01:36:03;;;;;;;68.07;34.53;;;;;;;0.85;100.00;102194.06;4943474;29;20098;-80
2023/02/15 01:38:30;;;;;;;72.40;36.53;;;;;;;0.86;100.00;102191.44;4944132;29;20054;-80
2023/02/15 01:41:19;;;;;;;73.22;36.20;;;;;;;0.85;100.00;102186.34;4944099;29;20115;-80
2023/02/15 01:43:47;;;;;;;70.35;34.85;;;;;;;0.87;100.00;102184.53;4946271;29;20062;-81
2023/02/15 01:46:16;;;;;;;75.45;36.08;;;;;;;0.84;100.00;102185.50;4944524;29;20142;-81
2023/02/15 01:48:47;;;;;;;74.97;34.88;;;;;;;0.78;100.00;102185.72;4945231;29;20098;-81
2023/02/15 01:51:18;;;;;;;74.97;36.17;;;;;;;0.83;100.00;102183.81;4946240;29;20067;-80
2023/02/15 01:53:52;;;;;;;70.30;35.08;;;;;;;0.82;100.00;102171.81;4943698;29;20115;-80
2023/02/15 01:56:22;;;;;;;70.70;34.42;;;;;;;0.81;100.00;102177.88;4941836;29;20083;-81
2023/02/15 01:58:52;;;;;;;68.10;34.42;;;;;;;0.80;100.00;102178.75;4941529;29;20139;-81
2023/02/15 02:01:20;;;;;;;67.38;34.28;;;;;;;0.79;100.00;102171.94;4940762;29;20225;-81
2023/02/15 02:03:57;;;;;;;67.30;33.17;;;;;;;0.78;100.00;102175.41;4940619;29;20058;-80
2023/02/15 02:06:24;;;;;;;69.55;35.00;;;;;;;0.73;100.00;102161.84;4940086;29;20145;-81
2023/02/15 02:08:52;;;;;;;64.65;33.75;;;;;;;0.73;100.00;102174.72;4943968;29;20115;-82
2023/02/15 02:11:19;;;;;;;74.18;34.05;;;;;;;0.73;100.00;102161.84;4957862;28;20058;-81
2023/02/15 02:13:46;;;;;;;70.97;35.53;;;;;;;0.73;100.00;102156.69;4941382;29;20052;-82
2023/02/15 02:16:20;;;;;;;73.68;35.45;;;;;;;0.71;100.00;102158.47;4941746;29;20083;-81
2023/02/15 02:19:00;;;;;;;70.13;34.75;;;;;;;0.69;100.00;102149.97;4947048;29;20087;-80
2023/02/15 02:21:45;;;;;;;72.30;35.53;;;;;;;0.66;100.00;102143.19;4940673;29;20244;-80
2023/02/15 02:24:35;;;;;;;66.68;32.72;;;;;;;0.64;100.00;102152.72;4937560;29;20052;-81
2023/02/15 02:27:22;;;;;;;65.70;33.42;;;;;;;0.65;100.00;102151.81;4941868;29;20087;-81
2023/02/15 02:30:07;;;;;;;66.88;32.33;;;;;;;0.62;100.00;102141.63;4939582;29;20059;-79
2023/02/15 02:33:09;;;;;;;70.47;33.42;;;;;;;0.60;100.00;102140.00;4941069;29;20055;-80
2023/02/15 02:35:46;;;;;;;68.00;33.47;;;;;;;0.59;100.00;102143.47;4926950;29;20059;-79
2023/02/15 02:38:20;;;;;;;70.88;35.13;;;;;;;0.58;100.00;102131.47;4939983;29;20115;-78
2023/02/15 02:40:56;;;;;;;64.57;32.90;;;;;;;0.55;100.00;102127.28;4940136;29;20082;-80
2023/02/15 02:43:32;;;;;;;68.35;33.35;;;;;;;0.55;100.00;102122.13;4939465;29;20143;-80
2023/02/15 02:46:06;;;;;;;65.20;32.65;;;;;;;0.55;100.00;102122.13;4932116;29;20147;-79
2023/02/15 02:48:34;;;;;;;74.25;34.03;;;;;;;0.50;100.00;102126.59;4939519;29;20111;-78
2023/02/15 02:51:02;;;;;;;70.60;34.28;;;;;;;0.48;100.00;102120.66;4941312;29;20135;-80
2023/02/15 02:53:32;;;;;;;72.68;33.38;;;;;;;0.51;100.00;102119.72;4944015;29;20549;-79
2023/02/15 02:56:04;;;;;;;68.70;33.70;;;;;;;0.47;100.00;102113.00;4943445;29;20107;-79
2023/02/15 02:58:34;;;;;;;72.03;34.75;;;;;;;0.45;100.00;102119.97;4943895;29;20054;-78
2023/02/15 03:01:10;;;;;;;70.00;33.63;;;;;;;0.43;100.00;102121.75;4945336;29;20051;-80
2023/02/15 03:03:40;;;;;;;64.85;32.35;;;;;;;0.40;100.00;102108.97;4944300;29;20059;-79
2023/02/15 03:06:11;;;;;;;70.32;33.05;;;;;;;0.43;100.00;102109.72;4943377;29;20071;-78
2023/02/15 03:08:41;;;;;;;73.63;34.58;;;;;;;0.44;100.00;102113.13;4943494;29;20087;-79
2023/02/15 03:11:09;;;;;;;74.45;35.38;;;;;;;0.42;100.00;102109.75;4949410;29;20078;-79
2023/02/15 03:13:36;;;;;;;76.00;34.67;;;;;;;0.37;100.00;102101.34;4953444;28;20083;-80
2023/02/15 03:18:56;;;;;;;79.15;35.30;;;;;;;0.31;100.00;102100.69;4946409;29;20055;-79
2023/02/15 03:21:26;;;;;;;;;;;;;;;0.32;100.00;102097.22;4946370;29;20044;-79
2023/02/15 03:23:58;;;;;;;70.38;33.90;;;;;;;0.30;100.00;102099.00;4945708;29;19970;-79
2023/02/15 03:26:26;;;;;;;75.68;34.47;;;;;;;0.29;100.00;102099.06;4945161;29;20059;-81
2023/02/15 03:28:56;;;;;;;74.97;36.13;;;;;;;0.28;100.00;102095.63;4944069;29;20127;-81
2023/02/15 03:31:27;;;;;;;71.22;35.83;;;;;;;0.30;100.00;102106.72;4944573;29;20101;-80
2023/02/15 03:33:58;;;;;;;82.97;36.22;;;;;;;0.30;100.00;102099.00;4939456;29;20119;-79
2023/02/15 03:36:34;;;;;;;75.75;35.03;;;;;;;0.23;100.00;102102.69;4947344;29;20083;-80
2023/02/15 03:39:16;;;;;;;74.25;35.05;;;;;;;0.24;100.00;102104.38;4942337;29;20066;-80
2023/02/15 03:41:50;;;;;;;78.63;34.72;;;;;;;0.22;100.00;102103.56;4952373;29;20078;-80
2023/02/15 03:44:24;;;;;;;74.90;33.45;;;;;;;0.19;100.00;102108.84;4954031;29;20059;-80
2023/02/15 03:46:58;;;;;;;76.13;32.83;;;;;;;0.09;100.00;102094.59;4958828;29;20060;-80
2023/02/15 03:53:08;;;;;;;68.65;34.65;;;;;;;0.13;100.00;102100.47;4952585;29;20624;-80
2023/02/15 03:55:54;;;;;;;71.10;33.63;;;;;;;0.09;100.00;102106.63;4945625;29;20059;-81
2023/02/15 04:04:17;;;;;;;74.45;33.72;;;;;;;0.05;100.00;102103.31;4950189;29;20057;-79
2023/02/15 04:06:44;;;;;;;76.07;35.72;;;;;;;0.01;100.00;102094.00;4943932;29;20087;-80
2023/02/15 04:11:56;;;;;;;75.00;34.50;;;;;;;0.00;100.00;102102.66;4903699;29;20133;-81
2023/02/15 04:17:06;;;;;;;76.43;35.45;;;;;;;-0.04;100.00;102096.78;4917907;29;20433;-80
2023/02/15 04:25:12;;;;;;;82.18;34.05;;;;;;;-0.02;100.00;102095.00;4938351;29;20059;-79
2023/02/15 04:27:39;;;;;;;83.20;35.35;;;;;;;-0.03;100.00;102093.31;4944812;29;20058;-79
2023/02/15 04:30:07;;;;;;;76.53;33.80;;;;;;;-0.05;100.00;102100.25;4944348;29;20090;-80
2023/02/15 04:32:34;;;;;;;79.25;35.75;;;;;;;-0.05;100.00;102099.41;4941323;29;20094;-80
2023/02/15 04:35:01;;;;;;;76.50;33.83;;;;;;;-0.10;100.00;102094.41;4948971;29;20116;-80
2023/02/15 04:37:28;;;;;;;81.47;35.33;;;;;;;-0.14;100.00;102084.25;4947079;29;20251;-80
2023/02/15 04:39:55;;;;;;;74.45;34.47;;;;;;;-0.08;100.00;102094.34;4935207;29;20059;-80
2023/02/15 04:42:23;;;;;;;81.00;35.45;;;;;;;-0.17;100.00;102080.06;4945411;29;20047;-81
2023/02/15 04:44:49;;;;;;;75.60;33.08;;;;;;;-0.16;100.00;102073.19;4946001;29;20063;-80
2023/02/15 04:47:16;;;;;;;79.72;35.25;;;;;;;-0.12;100.00;102088.47;4945670;29;20102;-81
2023/02/15 04:49:43;;;;;;;83.85;36.53;;;;;;;-0.13;100.00;102085.94;4946199;29;20043;-81
2023/02/15 04:52:10;;;;;;;75.85;33.40;;;;;;;-0.18;100.00;102090.41;4944634;29;20107;-81
2023/02/15 04:54:37;;;;;;;78.68;34.25;;;;;;;-0.15;100.00;102098.03;4953282;29;20106;-81
2023/02/15 04:57:04;;;;;;;78.32;36.25;;;;;;;-0.20;100.00;102084.47;4946520;29;20052;-81
2023/02/15 04:59:32;;;;;;;80.55;35.25;;;;;;;-0.22;100.00;102083.69;4946644;29;20043;-80
2023/02/15 05:01:59;;;;;;;79.35;35.50;;;;;;;-0.18;100.00;102086.09;4943852;29;20510;-82
2023/02/15 05:04:26;;;;;;;80.15;35.85;;;;;;;-0.14;100.00;102079.13;4942796;29;20095;-79
2023/02/15 05:06:52;;;;;;;77.15;34.33;;;;;;;-0.17;100.00;102080.06;4942402;29;20048;-78
2023/02/15 05:09:19;;;;;;;79.50;35.45;;;;;;;-0.18;100.00;102077.53;4950260;29;20059;-79
2023/02/15 05:11:46;;;;;;;79.45;35.33;;;;;;;-0.27;100.00;102072.69;4944641;29;20052;-79
2023/02/15 05:14:12;;;;;;;75.70;33.05;;;;;;;-0.18;100.00;102077.53;4945388;29;20044;-79
2023/02/15 05:16:40;;;;;;;79.75;34.60;;;;;;;-0.18;100.00;102082.69;4945206;29;20130;-79
2023/02/15 05:19:07;;;;;;;73.90;33.17;;;;;;;-0.25;100.00;102070.91;4949597;29;20044;-79
2023/02/15 05:21:34;;;;;;;79.38;34.53;;;;;;;-0.23;100.00;102082.84;4942931;29;20083;-79
2023/02/15 05:28:18;;;;;;;75.45;34.22;;;;;;;-0.17;100.00;102068.94;4943183;29;20167;-79
2023/02/15 05:29:32;;;;;;;81.63;34.78;;;;;;;-0.16;100.00;102070.63;4946788;29;20119;-80
2023/02/15 05:32:00;;;;;;;75.30;33.22;;;;;;;-0.15;100.00;102077.44;4952354;29;20136;-80
2023/02/15 05:34:27;;;;;;;78.07;33.63;;;;;;;-0.20;100.00;102069.03;4948321;29;20047;-79
2023/02/15 05:36:53;;;;;;;79.18;34.28;;;;;;;-0.15;100.00;102080.00;4946832;29;20056;-82
2023/02/15 05:39:20;;;;;;;72.90;31.60;;;;;;;-0.14;100.00;102073.97;4957024;29;20078;-80
2023/02/15 05:41:46;;;;;;;77.03;33.67;;;;;;;-0.14;100.00;102073.97;4950525;29;20058;-80
2023/02/15 05:44:13;;;;;;;77.97;32.78;;;;;;;-0.18;100.00;102062.94;4948635;29;20081;-79
2023/02/15 05:46:40;;;;;;;74.63;31.80;;;;;;;-0.21;100.00;102065.63;4945489;29;20082;-82
2023/02/15 05:49:08;;;;;;;73.95;31.13;;;;;;;-0.29;100.00;102056.47;4953490;29;20079;-82
2023/02/15 05:51:34;;;;;;;71.60;29.70;;;;;;;-0.18;100.00;102077.53;4953289;29;20087;-80
2023/02/15 05:54:01;;;;;;;69.63;32.63;;;;;;;-0.20;100.00;102069.88;4944103;29;20071;-81
2023/02/15 05:56:28;;;;;;;73.50;32.47;;;;;;;-0.18;100.00;102074.97;4947547;29;20112;-81
2023/02/15 05:58:55;;;;;;;71.75;30.92;;;;;;;-0.26;100.00;102069.25;4945730;29;20395;-81
2023/02/15 06:01:22;;;;;;;71.45;31.80;;;;;;;-0.18;100.00;102062.94;4944558;29;20079;-80
2023/02/15 06:03:49;;;;;;;73.00;32.05;;;;;;;-0.19;100.00;102063.00;4952976;29;20431;-79
2023/02/15 06:06:17;;;;;;;70.00;31.75;;;;;;;-0.19;100.00;102065.56;4941026;29;20087;-79
2023/02/15 06:08:44;;;;;;;74.00;31.98;;;;;;;-0.22;100.00;102068.25;4942275;29;20510;-80
2023/02/15 06:11:11;;;;;;;70.63;30.08;;;;;;;-0.21;100.00;102067.34;4946607;29;20091;-79
2023/02/15 06:13:38;;;;;;;75.32;32.63;;;;;;;-0.34;100.00;102057.47;4943995;29;20048;-81
2023/02/15 06:16:05;;;;;;;75.20;32.20;;;;;;;-0.23;100.00;102064.00;4952381;29;20569;-80
2023/02/15 06:18:31;;;;;;;71.60;31.83;;;;;;;-0.19;100.00;102070.72;4945135;29;20138;-80
2023/02/15 06:20:58;;;;;;;68.28;30.02;;;;;;;-0.23;100.00;102074.28;4950679;29;20055;-80
2023/02/15 06:23:26;;;;;;;69.95;32.25;;;;;;;-0.23;100.00;102075.13;4951716;29;20167;-78
2023/02/15 06:25:52;;;;;;;74.40;31.48;;;;;;;-0.25;100.00;102073.50;4944057;29;20083;-79
2023/02/15 06:28:19;;;;;;;71.38;31.48;;;;;;;-0.28;100.00;102076.16;4936857;29;20135;-77
2023/02/15 06:30:46;;;;;;;69.78;32.05;;;;;;;-0.27;100.00;102077.84;4937026;29;20538;-79
2023/02/15 06:33:12;;;;;;;66.75;30.52;;;;;;;-0.34;100.00;102082.34;4936291;29;20083;-78
2023/02/15 06:35:39;;;;;;;67.78;32.50;;;;;;;-0.31;100.00;102087.41;4936507;29;20075;-79
2023/02/15 06:38:06;;;;;;;71.22;31.80;;;;;;;-0.32;100.00;102084.88;4935202;29;20126;-79
2023/02/15 06:40:34;;;;;;;70.22;30.80;;;;;;;-0.31;100.00;102089.13;4938184;29;20051;-79
2023/02/15 06:43:00;;;;;;;70.75;32.05;;;;;;;-0.32;100.00;102095.16;4939380;29;20075;-80
2023/02/15 06:45:27;;;;;;;71.65;32.08;;;;;;;-0.35;100.00;102076.38;4939355;29;20059;-79
2023/02/15 06:47:54;;;;;;;67.25;31.48;;;;;;;-0.30;100.00;102083.09;4938476;29;20090;-80
2023/02/15 06:50:21;;;;;;;64.90;30.25;;;;;;;-0.29;100.00;102089.91;4946183;29;20051;-80
2023/02/15 06:52:47;;;;;;;70.85;32.63;;;;;;;-0.23;100.00;102079.44;4939679;29;20314;-80
2023/02/15 06:55:17;;;;;;;67.35;30.10;;;;;;;-0.22;100.00;102081.94;4947437;29;20048;-82
2023/02/15 06:57:45;;;;;;;67.95;29.27;;;;;;;-0.23;100.00;102084.56;4949992;29;20047;-78
2023/02/15 07:00:20;;;;;;;64.53;31.23;;;;;;;-0.21;100.00;102077.66;4945471;29;20052;-80
2023/02/15 07:02:47;;;;;;;65.13;29.70;;;;;;;-0.19;100.00;102076.69;4947246;29;20057;-77
2023/02/15 07:05:13;;;;;;;56.63;28.05;;;;;;;-0.18;100.00;102077.53;4937393;29;20070;-76
2023/02/15 07:07:40;;;;;;;60.00;28.45;;;;;;;-0.20;100.00;102076.75;4945308;29;20040;-79
2023/02/15 07:10:08;;;;;;;66.43;30.70;;;;;;;-0.20;100.00;102074.19;4942292;29;20144;-79
2023/02/15 07:12:44;;;;;;;62.72;30.83;;;;;;;-0.19;100.00;102071.56;4944426;29;20123;-79
2023/02/15 07:15:14;;;;;;;66.10;30.35;;;;;;;-0.06;100.00;102082.28;4941937;29;20060;-78
2023/02/15 07:17:40;;;;;;;59.53;28.25;;;;;;;-0.04;100.00;102081.34;4935978;29;20059;-77
2023/02/15 07:20:10;;;;;;;59.05;28.80;;;;;;;0.11;100.00;102079.09;4937370;29;20134;-77
2023/02/15 07:22:37;;;;;;;58.10;28.17;;;;;;;0.38;100.00;102082.44;4934243;29;20040;-77
2023/02/15 07:25:03;;;;;;;56.88;27.73;;;;;;;0.57;100.00;102067.97;4935820;29;20487;-79
2023/02/15 07:27:31;;;;;;;53.92;27.10;;;;;;;0.67;100.00;102059.00;4936530;29;20415;-79
2023/02/15 07:29:59;;;;;;;51.30;26.08;;;;;;;0.80;100.00;102059.41;4942285;29;20078;-78
2023/02/15 07:32:30;;;;;;;47.35;26.02;;;;;;;1.10;100.00;102052.19;4939478;29;20060;-78
2023/02/15 07:34:57;;;;;;;45.55;25.95;;;;;;;1.14;100.00;102054.59;4934759;29;20532;-78
2023/02/15 07:37:24;;;;;;;43.60;23.52;;;;;;;1.19;100.00;102042.34;4937424;29;20586;-77
2023/02/15 07:39:50;;;;;;;42.47;22.50;;;;;;;1.28;100.00;102036.00;4937372;29;20618;-79
2023/02/15 07:42:17;;;;;;;40.80;22.27;;;;;;;1.23;100.00;102027.59;4936908;29;20051;-78
2023/02/15 07:44:44;;;;;;;44.55;24.73;;;;;;;1.16;100.00;102031.31;4933605;29;20067;-78
2023/02/15 07:47:11;;;;;;;39.35;22.10;;;;;;;1.13;100.00;102021.13;4944870;29;20062;-78
2023/02/15 07:49:40;;;;;;;41.58;21.90;;;;;;;1.31;100.00;102022.97;4943551;29;20099;-76
2023/02/15 07:52:07;;;;;;;40.42;22.70;;;;;;;1.39;100.00;102015.78;4937669;29;20443;-78
2023/02/15 07:54:33;;;;;;;40.47;21.90;;;;;;;1.64;100.00;102008.66;4937009;29;20078;-77
2023/02/15 07:57:01;;;;;;;39.50;21.42;;;;;;;1.60;100.00;102014.03;4922326;29;20084;-78
2023/02/15 07:59:28;;;;;;;37.90;22.50;;;;;;;1.75;100.00;102012.53;4938358;29;20085;-78
2023/02/15 08:01:56;;;;;;;37.63;20.63;;;;;;;1.88;100.00;102016.28;4940434;29;20052;-80
2023/02/15 08:04:22;;;;;;;34.60;20.88;;;;;;;2.02;100.00;102013.91;4944918;29;20076;-78
2023/02/15 08:06:53;;;;;;;36.80;20.17;;;;;;;1.96;100.00;102007.25;4945935;29;21096;-80
2023/02/15 08:09:20;;;;;;;39.75;21.65;;;;;;;2.06;100.00;102005.13;4938994;29;20138;-76
2023/02/15 08:11:48;;;;;;;35.65;20.70;;;;;;;2.01;100.00;102001.91;4939663;29;20142;-77
2023/02/15 08:14:17;;;;;;;34.58;19.85;;;;;;;2.17;100.00;101994.31;4937134;29;20170;-80
2023/02/15 08:16:45;;;;;;;36.13;20.73;;;;;;;2.52;100.00;102008.22;4947082;29;20056;-79
2023/02/15 08:19:13;;;;;;;33.47;19.95;;;;;;;2.45;99.73;102009.41;4941594;29;20150;-79
2023/02/15 08:21:42;;;;;;;35.80;21.00;;;;;;;2.43;98.85;102001.72;4945646;29;20071;-80
2023/02/15 08:24:11;;;;;;;32.28;18.90;;;;;;;2.35;99.12;102000.41;4943792;29;20075;-79
2023/02/15 08:26:39;;;;;;;30.08;18.92;;;;;;;2.50;98.45;101995.34;4940490;29;20147;-79
2023/02/15 08:29:07;;;;;;;31.38;19.85;;;;;;;2.71;97.64;101993.53;4941376;29;20048;-77
2023/02/15 08:31:35;;;;;;;33.67;20.73;;;;;;;2.53;97.15;101999.53;4941210;29;20043;-78
2023/02/15 08:34:02;;;;;;;34.70;20.90;;;;;;;2.53;97.42;101996.97;4940736;29;20395;-77
2023/02/15 08:36:31;;;;;;;33.45;20.40;;;;;;;2.64;97.21;101992.13;4941881;29;20422;-80
2023/02/15 08:38:59;;;;;;;32.70;20.33;;;;;;;2.70;96.43;101981.50;4942460;29;20055;-78
2023/02/15 08:41:30;;;;;;;33.17;19.67;;;;;;;2.86;96.19;101987.59;4941833;29;20134;-79
2023/02/15 08:43:58;;;;;;;34.92;21.08;;;;;;;2.79;95.69;101988.84;4944719;29;20054;-78
2023/02/15 08:46:26;;;;;;;32.30;19.23;;;;;;;3.02;95.46;101981.72;4942710;29;20051;-78
2023/02/15 08:48:53;;;;;;;32.35;20.02;;;;;;;2.90;94.80;101981.38;4938026;29;20523;-79
2023/02/15 08:51:22;;;;;;;31.15;19.88;;;;;;;2.94;95.45;101975.16;4942008;29;20052;-77
2023/02/15 08:53:52;;;;;;;33.15;20.95;;;;;;;2.86;94.89;101982.44;4945324;29;20126;-76
2023/02/15 08:56:19;;;;;;;35.80;20.83;;;;;;;2.89;95.28;101974.53;4941598;29;20095;-79
2023/02/15 08:58:48;;;;;;;30.63;19.80;;;;;;;2.89;95.00;101976.28;4946025;29;20087;-78
2023/02/15 09:01:19;;;;;;;33.63;20.30;;;;;;;2.83;95.36;101976.59;4945999;29;20051;-77
2023/02/15 09:03:47;;;;;;;29.30;19.08;;;;;;;2.96;95.57;101981.09;4940457;29;20115;-77
2023/02/15 09:06:14;;;;;;;34.97;21.20;;;;;;;3.06;95.27;101984.06;4940118;29;20094;-77
2023/02/15 09:08:41;;;;;;;33.20;19.98;;;;;;;3.02;94.72;101992.88;4949199;28;20047;-78
2023/02/15 09:11:10;;;;;;;32.58;19.92;;;;;;;3.07;94.56;101982.31;4974787;28;20163;-80
2023/02/15 09:13:38;;;;;;;29.60;19.00;;;;;;;3.07;94.72;101984.91;4970424;28;20063;-77
2023/02/15 09:16:08;;;;;;;30.65;19.75;;;;;;;3.19;94.54;101984.31;4956028;29;20055;-78
2023/02/15 09:18:37;;;;;;;28.08;18.45;;;;;;;3.20;94.15;101980.81;4957407;29;20403;-80
2023/02/15 09:21:13;;;;;;;33.25;20.77;;;;;;;3.25;93.76;101984.03;4960266;29;20071;-77
2023/02/15 09:23:40;;;;;;;30.75;19.15;;;;;;;3.34;94.05;101988.72;4958058;29;20050;-77
2023/02/15 09:26:08;;;;;;;29.38;19.30;;;;;;;3.57;93.17;101975.47;4949032;29;20108;-81
2023/02/15 09:28:35;;;;;;;36.60;24.58;;;;;;;3.87;93.07;101977.38;4949016;29;20071;-81
2023/02/15 09:31:12;;;;;;;30.80;19.42;;;;;;;4.12;92.58;101976.94;4941913;29;20067;-79
2023/02/15 09:33:40;;;;;;;28.33;18.08;;;;;;;3.74;92.06;101976.34;4952038;29;20111;-79
2023/02/15 09:36:14;;;;;;;31.05;18.88;;;;;;;3.75;91.63;101978.88;4938593;29;20475;-79
2023/02/15 09:38:40;;;;;;;30.45;18.65;;;;;;;3.83;92.17;101983.63;4938959;29;20166;-79
2023/02/15 09:41:29;;;;;;;30.20;19.10;;;;;;;3.86;91.90;101986.06;4940425;29;20090;-80
2023/02/15 09:44:10;;;;;;;32.08;19.95;;;;;;;3.78;91.15;101978.69;4917638;29;20673;-78
2023/02/15 09:47:05;;;;;;;31.30;19.40;;;;;;;3.85;91.81;101974.84;4936032;29;20055;-77
2023/02/15 09:49:41;;;;;;;32.72;20.25;;;;;;;3.92;91.09;101981.41;4938405;29;20174;-78
2023/02/15 09:52:37;;;;;;;30.02;18.95;;;;;;;3.99;90.79;101984.50;4943218;29;20075;-78
2023/02/15 09:55:26;;;;;;;29.88;19.30;;;;;;;4.13;90.57;101984.63;4935161;29;20043;-80
2023/02/15 09:58:03;;;;;;;38.22;18.58;;;;;;;4.17;90.14;101980.13;4939483;29;20048;-80
2023/02/15 10:00:36;;;;;;;27.90;18.45;;;;;;;4.17;89.66;101983.53;4948674;29;20050;-80
2023/02/15 10:03:26;;;;;;;32.10;19.70;;;;;;;4.20;90.34;101985.97;4934586;29;20086;-80
2023/02/15 10:06:08;;;;;;;34.95;19.33;;;;;;;4.39;89.80;101980.63;4944869;29;20079;-79
2023/02/15 10:08:53;;;;;;;31.98;19.90;;;;;;;4.63;89.52;101979.28;4935998;29;20111;-79
2023/02/15 10:11:40;;;;;;;27.52;18.42;;;;;;;4.69;88.91;101977.28;4949054;29;20130;-78
2023/02/15 10:14:19;;;;;;;32.30;19.13;;;;;;;4.70;88.56;101978.94;4960300;28;20078;-81
2023/02/15 10:16:57;;;;;;;26.98;18.48;;;;;;;4.68;87.91;101979.03;4938657;29;20130;-79
2023/02/15 10:19:36;;;;;;;29.83;19.25;;;;;;;4.80;87.97;101975.72;4944963;29;20075;-78
2023/02/15 10:22:18;;;;;;;29.50;18.42;;;;;;;4.98;88.00;101973.88;4936797;29;20052;-79
2023/02/15 10:24:59;;;;;;;28.95;18.48;;;;;;;5.04;87.04;101972.69;4945895;29;20051;-80
2023/02/15 10:27:33;;;;;;;26.55;17.92;;;;;;;5.31;86.93;101971.06;4949146;29;20123;-80
2023/02/15 10:30:09;;;;;;;30.92;19.33;;;;;;;5.22;86.39;101972.44;4932904;29;20082;-79
2023/02/15 10:32:45;;;;;;;25.77;17.70;;;;;;;5.36;85.93;101974.25;4944611;29;20089;-80
2023/02/15 10:35:21;;;;;;;26.55;17.90;;;;;;;5.42;85.64;101968.69;4940199;29;20134;-79
2023/02/15 10:38:02;;;;;;;28.55;19.13;;;;;;;5.48;85.32;101957.94;4939642;29;20079;-78
2023/02/15 10:40:37;;;;;;;30.38;19.15;;;;;;;5.53;85.19;101966.31;4939169;29;20376;-78
2023/02/15 10:43:17;;;;;;;26.77;18.55;;;;;;;5.63;85.11;101964.00;4948362;29;20139;-80
2023/02/15 10:45:56;;;;;;;27.80;18.05;;;;;;;5.80;85.01;101963.81;4940835;29;20130;-76
2023/02/15 10:48:35;;;;;;;27.45;18.17;;;;;;;5.80;84.44;101949.97;4947281;29;20517;-79
2023/02/15 10:51:06;;;;;;;27.02;17.35;;;;;;;6.13;83.76;101949.72;4936170;29;20048;-79
2023/02/15 10:53:51;;;;;;;29.00;17.27;;;;;;;6.24;83.55;101961.09;4936661;29;20103;-81
2023/02/15 10:56:23;;;;;;;28.58;17.50;;;;;;;6.48;83.43;101950.09;4943801;29;20126;-79
2023/02/15 10:59:07;;;;;;;26.40;17.87;;;;;;;6.40;82.88;101949.75;4949044;29;20068;-79
2023/02/15 11:01:40;;;;;;;26.65;17.85;;;;;;;6.11;82.47;101936.84;4940974;29;20307;-78
2023/02/15 11:04:22;;;;;;;;;;;;;;;6.17;82.52;101943.38;4946738;29;20043;-77
2023/02/15 11:06:54;;;;;;;28.70;17.85;;;;;;;6.37;82.68;101931.75;4939553;29;19966;-76
2023/02/15 11:09:23;;;;;;;24.23;16.80;;;;;;;6.51;82.10;101937.75;4939382;29;20048;-77
2023/02/15 11:11:53;;;;;;;27.67;17.50;;;;;;;6.70;82.00;101931.34;4937783;29;20150;-78
2023/02/15 11:14:38;;;;;;;29.75;18.33;;;;;;;6.86;81.39;101929.41;4935743;29;20072;-78
2023/02/15 11:17:10;;;;;;;30.05;17.92;;;;;;;6.96;81.18;101925.28;4933541;29;20419;-76
2023/02/15 11:19:42;;;;;;;26.83;17.02;;;;;;;7.11;80.60;101918.22;4936331;29;20083;-78
2023/02/15 11:22:12;;;;;;;26.40;17.20;;;;;;;7.15;80.31;101924.88;4930737;29;20120;-78
2023/02/15 11:24:43;;;;;;;25.67;16.70;;;;;;;7.17;79.72;101913.44;4935462;29;20080;-78
2023/02/15 11:27:20;;;;;;;27.92;18.08;;;;;;;7.26;79.45;101918.03;4950321;29;20132;-80
2023/02/15 11:29:57;;;;;;;26.55;18.25;;;;;;;7.29;79.14;101914.38;4941600;29;20074;-80
2023/02/15 11:32:28;;;;;;;28.13;17.80;;;;;;;7.49;78.73;101908.66;4953251;29;20075;-80
2023/02/15 11:34:59;;;;;;;26.13;18.20;;;;;;;7.75;78.24;101909.47;4951631;28;20052;-79
2023/02/15 11:37:32;;;;;;;30.05;17.67;;;;;;;7.73;78.18;101897.47;4951948;29;20054;-81
2023/02/15 11:40:03;;;;;;;28.40;18.40;;;;;;;7.78;77.63;101900.59;4943209;29;20047;-80
2023/02/15 11:42:32;;;;;;;29.55;18.60;;;;;;;8.07;77.33;101895.94;4947467;29;20080;-78
2023/02/15 11:45:05;;;;;;;27.50;18.30;;;;;;;8.02;76.78;101885.84;4951280;29;20063;-81
2023/02/15 11:47:32;;;;;;;25.52;17.90;;;;;;;8.18;76.64;101880.34;4955290;29;20563;-81
2023/02/15 11:49:58;;;;;;;27.98;17.10;;;;;;;8.16;76.49;101887.47;4947210;29;20090;-81